createdAt,value
2019-04-07T00:01:13.408Z,99117.92
2019-04-07T00:03:41.063Z,99114.42
2019-04-07T00:06:08.718Z,99110.97
2019-04-07T00:08:36.586Z,99116.92
2019-04-07T00:11:04.595Z,99118.08
2019-04-07T00:13:32.723Z,99119.73
2019-04-07T00:16:00.578Z,99122.83
2019-04-07T00:18:28.387Z,99113.17
2019-04-07T00:20:56.580Z,99123.25
2019-04-07T00:23:24.531Z,99121.36
2019-04-07T00:25:52.475Z,99128.73
2019-04-07T00:28:20.492Z,99128.41
2019-04-07T00:30:48.888Z,99130.56
2019-04-07T00:33:16.676Z,99126.06
2019-04-07T00:35:44.634Z,99129.27
2019-04-07T00:38:12.731Z,99131.13
2019-04-07T00:40:40.431Z,99131.48
2019-04-07T00:43:08.752Z,99129.98
2019-04-07T00:45:36.988Z,99128.23
2019-04-07T00:48:04.727Z,99134.14
2019-04-07T00:50:33.239Z,99136.55
2019-04-07T00:53:01.276Z,99137.27
2019-04-07T00:55:29.627Z,99136.36
2019-04-07T00:57:58.338Z,99129.88
2019-04-07T01:00:28.093Z,99140.94
2019-04-07T01:02:56.124Z,99141.33
2019-04-07T01:05:35.640Z,99140.52
2019-04-07T01:07:54.251Z,99137.20
2019-04-07T01:10:21.994Z,99141.88
2019-04-07T01:12:50.153Z,99133.08
2019-04-07T01:15:18.586Z,99142.28
2019-04-07T01:17:46.561Z,99137.56
2019-04-07T01:20:15.157Z,99150.02
2019-04-07T01:22:42.896Z,99147.75
2019-04-07T01:25:10.548Z,99148.37
2019-04-07T01:27:38.216Z,99146.47
2019-04-07T01:30:06.341Z,99147.61
2019-04-07T01:32:34.614Z,99146.76
2019-04-07T01:35:02.529Z,99151.27
2019-04-07T01:37:30.700Z,99154.04
2019-04-07T01:39:59.228Z,99151.88
2019-04-07T01:42:33.549Z,99158.36
2019-04-07T01:45:07.252Z,99151.75
2019-04-07T01:47:54.939Z,99149.72
2019-04-07T01:50:31.169Z,99154.09
2019-04-07T01:53:08.961Z,99155.03
2019-04-07T01:55:50.245Z,99156.20
2019-04-07T01:58:38.128Z,99158.88
2019-04-07T02:01:24.903Z,99152.22
2019-04-07T02:04:03.095Z,99148.36
2019-04-07T02:06:39.921Z,99159.66
2019-04-07T02:09:13.635Z,99156.09
2019-04-07T02:11:51.778Z,99155.73
2019-04-07T02:14:41.975Z,99152.22
2019-04-07T02:17:16.142Z,99149.48
2019-04-07T02:19:50.303Z,99152.41
2019-04-07T02:22:31.695Z,99155.48
2019-04-07T02:25:10.753Z,99159.77
2019-04-07T02:27:57.578Z,99155.37
2019-04-07T02:30:48.196Z,99157.72
2019-04-07T02:33:25.701Z,99154.15
2019-04-07T02:36:15.539Z,99153.06
2019-04-07T02:38:41.013Z,99158.55
2019-04-07T02:41:29.177Z,99160.86
2019-04-07T02:44:04.986Z,99162.04
2019-04-07T02:46:44.179Z,99162.05
2019-04-07T02:49:19.970Z,99160.34
2019-04-07T02:52:00.724Z,99158.05
2019-04-07T02:54:38.781Z,99162.92
2019-04-07T02:57:13.202Z,99163.25
2019-04-07T02:59:50.077Z,99162.37
2019-04-07T03:02:29.228Z,99166.86
2019-04-07T03:05:13.689Z,99170.65
2019-04-07T03:07:50.352Z,99171.86
2019-04-07T03:10:31.842Z,99178.36
2019-04-07T03:13:09.263Z,99180.52
2019-04-07T03:15:41.630Z,99176.69
2019-04-07T03:18:24.242Z,99176.61
2019-04-07T03:20:59.198Z,99177.72
2019-04-07T03:23:41.795Z,99173.01
2019-04-07T03:26:15.146Z,99176.76
2019-04-07T03:28:55.740Z,99175.55
2019-04-07T03:31:33.044Z,99181.05
2019-04-07T03:34:24.121Z,99181.30
2019-04-07T03:37:28.658Z,99177.90
2019-04-07T03:39:50.093Z,99173.53
2019-04-07T03:42:29.733Z,99168.59
2019-04-07T03:45:06.539Z,99167.59
2019-04-07T03:47:39.576Z,99170.69
2019-04-07T03:50:12.531Z,99169.27
2019-04-07T03:52:45.384Z,99167.87
2019-04-07T03:55:33.987Z,99166.88
2019-04-07T03:58:25.968Z,99168.14
2019-04-07T04:01:11.607Z,99168.60
2019-04-07T04:03:46.023Z,99163.89
2019-04-07T04:06:38.990Z,99169.96
2019-04-07T04:09:13.902Z,99170.98
2019-04-07T04:11:47.609Z,99165.84
2019-04-07T04:14:21.874Z,99176.41
2019-04-07T04:16:51.546Z,99171.24
2019-04-07T04:19:19.186Z,99168.56
2019-04-07T04:21:47.830Z,99173.83
2019-04-07T04:24:16.622Z,99169.17
2019-04-07T04:26:44.659Z,99178.16
2019-04-07T04:29:12.350Z,99168.88
2019-04-07T04:31:40.516Z,99168.22
2019-04-07T04:34:08.288Z,99168.63
2019-04-07T04:36:36.104Z,99171.11
2019-04-07T04:39:04.867Z,99173.41
2019-04-07T04:41:32.960Z,99184.96
2019-04-07T04:44:00.787Z,99178.73
2019-04-07T04:46:28.435Z,99182.75
2019-04-07T04:48:56.676Z,99178.55
2019-04-07T04:51:24.587Z,99176.52
2019-04-07T04:53:52.247Z,99178.25
2019-04-07T04:56:20.020Z,99184.69
2019-04-07T04:58:47.847Z,99188.05
2019-04-07T05:01:16.272Z,99195.23
2019-04-07T05:03:44.052Z,99196.87
2019-04-07T05:06:11.913Z,99196.81
2019-04-07T05:08:39.700Z,99197.34
2019-04-07T05:11:07.850Z,99194.77
2019-04-07T05:13:35.752Z,99204.57
2019-04-07T05:16:03.771Z,99202.06
2019-04-07T05:18:32.311Z,99198.89
2019-04-07T05:21:00.548Z,99202.63
2019-04-07T05:23:28.480Z,99204.57
2019-04-07T05:25:56.304Z,99209.39
2019-04-07T05:28:24.429Z,99210.81
2019-04-07T05:30:52.191Z,99209.70
2019-04-07T05:33:20.080Z,99210.94
2019-04-07T05:35:48.353Z,99213.72
2019-04-07T05:38:16.446Z,99221.48
2019-04-07T05:40:44.120Z,99228.70
2019-04-07T05:43:12.419Z,99241.52
2019-04-07T05:45:40.144Z,99234.34
2019-04-07T05:48:08.286Z,99241.14
2019-04-07T05:50:36.103Z,99240.57
2019-04-07T05:53:04.228Z,99238.20
2019-04-07T05:55:32.060Z,99239.42
2019-04-07T05:58:03.456Z,99236.09
2019-04-07T06:00:29.605Z,99243.85
2019-04-07T06:02:58.202Z,99240.10
2019-04-07T06:05:26.057Z,99235.08
2019-04-07T06:07:54.165Z,99230.80
2019-04-07T06:10:24.685Z,99240.29
2019-04-07T06:12:51.384Z,99235.76
2019-04-07T06:15:22.006Z,99240.27
2019-04-07T06:17:49.080Z,99238.14
2019-04-07T06:20:17.783Z,99241.75
2019-04-07T06:22:47.017Z,99242.84
2019-04-07T06:25:15.420Z,99240.62
2019-04-07T06:27:45.269Z,99240.18
2019-04-07T06:30:13.894Z,99238.21
2019-04-07T06:32:43.646Z,99241.48
2019-04-07T06:35:13.291Z,99233.73
2019-04-07T06:37:40.699Z,99234.94
2019-04-07T06:40:09.118Z,99234.19
2019-04-07T06:42:37.541Z,99232.02
2019-04-07T06:45:06.300Z,99239.56
2019-04-07T06:47:39.907Z,99240.92
2019-04-07T06:50:15.466Z,99237.22
2019-04-07T06:52:53.175Z,99239.72
2019-04-07T06:55:32.978Z,99235.02
2019-04-07T06:58:11.122Z,99241.46
2019-04-07T07:00:46.764Z,99242.50
2019-04-07T07:03:22.639Z,99239.99
2019-04-07T07:06:01.218Z,99242.28
2019-04-07T07:08:48.585Z,99238.56
2019-04-07T07:11:34.683Z,99237.70
2019-04-07T07:14:12.378Z,99237.06
2019-04-07T07:16:46.911Z,99241.05
2019-04-07T07:19:26.370Z,99241.64
2019-04-07T07:22:15.541Z,99244.61
2019-04-07T07:24:41.724Z,99251.97
2019-04-07T07:27:11.260Z,99246.78
2019-04-07T07:29:38.886Z,99251.58
2019-04-07T07:32:06.571Z,99248.19
2019-04-07T07:34:34.219Z,99246.53
2019-04-07T07:37:01.906Z,99253.02
2019-04-07T07:39:30.596Z,99252.63
2019-04-07T07:41:59.328Z,99252.71
2019-04-07T07:44:27.772Z,99253.04
2019-04-07T07:46:55.529Z,99253.13
2019-04-07T07:49:23.219Z,99253.06
2019-04-07T07:51:51.674Z,99251.54
2019-04-07T07:54:19.495Z,99252.46
2019-04-07T07:56:49.909Z,99248.56
2019-04-07T07:59:16.644Z,99252.06
2019-04-07T08:01:46.308Z,99252.00
2019-04-07T08:04:13.990Z,99252.06
2019-04-07T08:06:42.243Z,99253.84
2019-04-07T08:09:14.920Z,99243.42
2019-04-07T08:11:39.938Z,99248.63
2019-04-07T08:14:07.865Z,99246.02
2019-04-07T08:16:35.724Z,99244.27
2019-04-07T08:19:03.975Z,99250.77
2019-04-07T08:21:31.680Z,99248.95
2019-04-07T08:23:59.331Z,99248.91
2019-04-07T08:26:27.775Z,99250.96
2019-04-07T08:28:55.628Z,99252.56
2019-04-07T08:31:24.111Z,99252.22
2019-04-07T08:33:52.794Z,99261.45
2019-04-07T08:36:20.580Z,99255.70
2019-04-07T08:38:51.739Z,99251.30
2019-04-07T08:41:18.068Z,99245.81
2019-04-07T08:43:46.294Z,99249.09
2019-04-07T08:46:14.380Z,99249.27
2019-04-07T08:48:42.037Z,99253.61
2019-04-07T08:51:10.118Z,99249.83
2019-04-07T08:53:38.962Z,99245.29
2019-04-07T08:56:08.729Z,99245.61
2019-04-07T08:58:38.770Z,99252.48
2019-04-07T09:01:06.337Z,99248.17
2019-04-07T09:03:34.716Z,99247.78
2019-04-07T09:06:03.040Z,99242.62
2019-04-07T09:08:30.795Z,99239.91
2019-04-07T09:11:04.546Z,99236.20
2019-04-07T09:13:34.167Z,99241.13
2019-04-07T09:16:11.524Z,99238.17
2019-04-07T09:19:01.720Z,99242.59
2019-04-07T09:21:38.833Z,99239.27
2019-04-07T09:24:12.785Z,99233.89
2019-04-07T09:26:48.607Z,99238.79
2019-04-07T09:29:27.975Z,99238.47
2019-04-07T09:32:08.308Z,99237.36
2019-04-07T09:34:45.089Z,99234.45
2019-04-07T09:37:33.855Z,99234.63
2019-04-07T09:40:08.263Z,99234.05
2019-04-07T09:42:43.606Z,99232.80
2019-04-07T09:45:17.373Z,99238.30
2019-04-07T09:48:05.197Z,99236.92
2019-04-07T09:50:55.438Z,99236.81
2019-04-07T09:53:30.520Z,99232.43
2019-04-07T09:56:11.718Z,99237.67
2019-04-07T09:58:45.528Z,99234.50
2019-04-07T10:01:20.752Z,99229.27
2019-04-07T10:03:53.037Z,99229.39
2019-04-07T10:06:33.216Z,99234.67
2019-04-07T10:09:21.741Z,99227.49
2019-04-07T10:11:56.619Z,99229.95
2019-04-07T10:14:30.657Z,99228.17
2019-04-07T10:17:06.509Z,99231.86
2019-04-07T10:19:48.970Z,99213.75
2019-04-07T10:22:21.954Z,99226.86
2019-04-07T10:25:01.120Z,99225.83
2019-04-07T10:27:49.861Z,99231.28
2019-04-07T10:30:24.330Z,99230.41
2019-04-07T10:33:00.200Z,99225.78
2019-04-07T10:35:44.716Z,99225.61
2019-04-07T10:38:21.405Z,99226.69
2019-04-07T10:40:57.779Z,99222.70
2019-04-07T10:43:34.916Z,99228.24
2019-04-07T10:46:11.221Z,99222.04
2019-04-07T10:48:46.730Z,99217.46
2019-04-07T10:51:27.419Z,99217.92
2019-04-07T10:54:04.914Z,99213.10
2019-04-07T10:56:42.811Z,99215.11
2019-04-07T10:59:17.425Z,99218.55
2019-04-07T11:01:51.787Z,99217.80
2019-04-07T11:04:31.668Z,99211.33
2019-04-07T11:07:11.903Z,99202.20
2019-04-07T11:10:03.517Z,99202.34
2019-04-07T11:12:40.046Z,99200.11
2019-04-07T11:15:20.611Z,99198.16
2019-04-07T11:18:01.128Z,99204.28
2019-04-07T11:20:43.376Z,99194.76
2019-04-07T11:23:22.979Z,99200.90
2019-04-07T11:26:13.807Z,99191.41
2019-04-07T11:29:01.506Z,99195.57
2019-04-07T11:31:35.189Z,99189.70
2019-04-07T11:34:08.871Z,99189.75
2019-04-07T11:36:57.112Z,99191.67
2019-04-07T11:39:44.647Z,99190.08
2019-04-07T11:42:21.323Z,99184.34
2019-04-07T11:44:59.706Z,99196.38
2019-04-07T11:47:32.939Z,99191.08
2019-04-07T11:50:08.259Z,99186.97
2019-04-07T11:52:57.316Z,99193.98
2019-04-07T11:55:33.411Z,99184.20
2019-04-07T11:58:14.874Z,99191.20
2019-04-07T12:00:48.843Z,99183.32
2019-04-07T12:03:27.571Z,99187.64
2019-04-07T12:06:15.777Z,99184.16
2019-04-07T12:08:54.589Z,99186.90
2019-04-07T12:11:27.787Z,99185.73
2019-04-07T12:14:04.115Z,99191.31
2019-04-07T12:16:43.761Z,99181.09
2019-04-07T12:19:30.679Z,99182.58
2019-04-07T12:22:10.462Z,99189.75
2019-04-07T12:24:50.180Z,99184.03
2019-04-07T12:27:40.646Z,99182.48
2019-04-07T12:30:16.491Z,99179.44
2019-04-07T12:32:49.810Z,99171.30
2019-04-07T12:35:24.275Z,99173.55
2019-04-07T12:38:00.319Z,99171.52
2019-04-07T12:40:41.978Z,99166.12
2019-04-07T12:43:18.401Z,99164.53
2019-04-07T12:45:51.563Z,99163.56
2019-04-07T12:48:31.698Z,99154.64
2019-04-07T12:51:12.356Z,99156.61
2019-04-07T12:53:46.187Z,99156.94
2019-04-07T12:56:34.295Z,99164.88
2019-04-07T12:59:09.607Z,99157.62
2019-04-07T13:01:48.463Z,99149.91
2019-04-07T13:04:35.341Z,99143.69
2019-04-07T13:07:15.170Z,99135.89
2019-04-07T13:09:50.012Z,99139.91
2019-04-07T13:12:29.755Z,99137.39
2019-04-07T13:15:03.420Z,99144.71
2019-04-07T13:17:48.463Z,99137.11
2019-04-07T13:20:25.144Z,99145.59
2019-04-07T13:23:01.438Z,99139.80
2019-04-07T13:25:38.674Z,99139.08
2019-04-07T13:28:10.985Z,99137.80
2019-04-07T13:30:45.851Z,99127.96
2019-04-07T13:33:34.895Z,99124.03
2019-04-07T13:36:17.094Z,99119.49
2019-04-07T13:39:06.617Z,99119.42
2019-04-07T13:41:52.621Z,99123.49
2019-04-07T13:44:24.740Z,99129.85
2019-04-07T13:47:06.215Z,99122.55
2019-04-07T13:49:41.980Z,99118.25
2019-04-07T13:52:19.308Z,99121.84
2019-04-07T13:54:53.667Z,99124.28
2019-04-07T13:57:42.859Z,99111.78
2019-04-07T14:00:22.790Z,99123.22
2019-04-07T14:03:00.232Z,99113.65
2019-04-07T14:05:40.085Z,99113.11
2019-04-07T14:08:18.668Z,99104.96
2019-04-07T14:10:51.502Z,99120.27
2019-04-07T14:13:27.727Z,99103.96
2019-04-07T14:16:15.987Z,99117.44
2019-04-07T14:18:52.461Z,99110.84
2019-04-07T14:21:24.262Z,99106.23
2019-04-07T14:24:04.754Z,99111.50
2019-04-07T14:26:46.689Z,99111.42
2019-04-07T14:29:28.415Z,99109.25
2019-04-07T14:32:11.960Z,99108.83
2019-04-07T14:34:50.912Z,99106.28
2019-04-07T14:37:38.688Z,99114.94
2019-04-07T14:40:11.894Z,99115.56
2019-04-07T14:42:49.661Z,99111.64
2019-04-07T14:45:23.158Z,99113.41
2019-04-07T14:48:11.844Z,99108.33
2019-04-07T14:50:44.895Z,99109.98
2019-04-07T14:53:35.486Z,99112.91
2019-04-07T14:56:15.455Z,99108.80
2019-04-07T14:58:55.180Z,99116.03
2019-04-07T15:01:28.166Z,99110.73
2019-04-07T15:03:55.998Z,99112.82
2019-04-07T15:06:26.019Z,99113.88
2019-04-07T15:09:04.589Z,99116.87
2019-04-07T15:11:37.961Z,99117.22
2019-04-07T15:14:06.236Z,99113.97
2019-04-07T15:16:35.014Z,99110.16
2019-04-07T15:19:03.181Z,99111.55
2019-04-07T15:21:31.885Z,99117.48
2019-04-07T15:24:04.020Z,99123.84
2019-04-07T15:26:29.304Z,99124.87
2019-04-07T15:28:58.997Z,99123.70
2019-04-07T15:31:26.477Z,99118.11
2019-04-07T15:33:54.151Z,99121.95
2019-04-07T15:36:22.117Z,99122.35
2019-04-07T15:38:49.934Z,99116.24
2019-04-07T15:41:19.091Z,99117.06
2019-04-07T15:43:47.027Z,99116.70
2019-04-07T15:46:16.763Z,99111.55
2019-04-07T15:48:44.166Z,99118.44
2019-04-07T15:51:13.273Z,99113.70
2019-04-07T15:53:44.617Z,99114.31
2019-04-07T15:56:15.039Z,99115.75
2019-04-07T15:58:40.846Z,99130.69
2019-04-07T16:01:09.442Z,99124.65
2019-04-07T16:03:38.828Z,99124.59
2019-04-07T16:06:06.623Z,99131.03
2019-04-07T16:08:34.948Z,99134.08
2019-04-07T16:11:03.734Z,99136.61
2019-04-07T16:13:31.719Z,99136.61
2019-04-07T16:15:59.631Z,99130.57
2019-04-07T16:18:27.427Z,99130.16
2019-04-07T16:20:55.091Z,99141.59
2019-04-07T16:23:22.875Z,99136.91
2019-04-07T16:25:51.207Z,99143.47
2019-04-07T16:28:18.980Z,99144.05
2019-04-07T16:30:49.930Z,99140.87
2019-04-07T16:33:16.319Z,99140.13
2019-04-07T16:35:49.062Z,99141.81
2019-04-07T16:38:14.139Z,99146.77
2019-04-07T16:40:42.413Z,99141.62
2019-04-07T16:43:15.415Z,99152.51
2019-04-07T16:45:44.124Z,99149.11
2019-04-07T16:48:10.731Z,99142.70
2019-04-07T16:50:38.551Z,99147.64
2019-04-07T16:53:07.830Z,99150.70
2019-04-07T16:55:35.684Z,99144.42
2019-04-07T16:58:04.112Z,99139.19
2019-04-07T17:00:32.388Z,99146.69
2019-04-07T17:03:00.225Z,99140.67
2019-04-07T17:05:27.878Z,99143.27
2019-04-07T17:07:56.921Z,99147.70
2019-04-07T17:10:28.752Z,99143.17
2019-04-07T17:12:54.629Z,99139.70
2019-04-07T17:15:23.201Z,99145.15
2019-04-07T17:17:53.089Z,99144.41
2019-04-07T17:20:20.527Z,99148.76
2019-04-07T17:22:49.401Z,99151.25
2019-04-07T17:25:17.280Z,99149.83
2019-04-07T17:27:45.385Z,99151.94
2019-04-07T17:30:13.600Z,99152.99
2019-04-07T17:32:41.333Z,99156.53
2019-04-07T17:35:11.876Z,99157.72
2019-04-07T17:37:38.363Z,99156.20
2019-04-07T17:40:13.053Z,99160.69
2019-04-07T17:42:40.379Z,99158.30
2019-04-07T17:45:23.502Z,99159.83
2019-04-07T17:48:11.660Z,99161.11
2019-04-07T17:51:05.749Z,99170.36
2019-04-07T17:53:41.338Z,99168.74
2019-04-07T17:56:20.279Z,99175.80
2019-04-07T17:58:56.690Z,99168.24
2019-04-07T18:01:34.152Z,99170.09
2019-04-07T18:04:13.983Z,99176.58
2019-04-07T18:06:51.984Z,99180.00
2019-04-07T18:09:30.986Z,99176.91
2019-04-07T18:12:13.700Z,99181.36
2019-04-07T18:14:58.537Z,99185.43
2019-04-07T18:17:32.163Z,99188.20
2019-04-07T18:20:14.064Z,99191.63
2019-04-07T18:23:01.292Z,99186.45
2019-04-07T18:25:41.366Z,99192.82
2019-04-07T18:28:22.991Z,99195.59
2019-04-07T18:30:58.428Z,99200.90
2019-04-07T18:33:50.058Z,99201.47
2019-04-07T18:36:27.614Z,99207.98
2019-04-07T18:39:09.087Z,99212.89
2019-04-07T18:41:44.775Z,99218.63
2019-04-07T18:44:18.331Z,99221.67
2019-04-07T18:47:02.701Z,99219.06
2019-04-07T18:49:40.911Z,99221.78
2019-04-07T18:52:14.033Z,99222.21
2019-04-07T18:54:51.764Z,99223.48
2019-04-07T18:57:28.001Z,99223.08
2019-04-07T19:00:14.814Z,99230.36
2019-04-07T19:02:48.323Z,99229.13
2019-04-07T19:05:24.865Z,99239.13
2019-04-07T19:08:04.011Z,99238.22
2019-04-07T19:10:40.075Z,99233.95
2019-04-07T19:13:17.579Z,99240.36
2019-04-07T19:15:55.489Z,99238.08
2019-04-07T19:18:36.747Z,99243.44
2019-04-07T19:21:18.681Z,99247.35
2019-04-07T19:23:58.644Z,99244.67
2019-04-07T19:26:29.448Z,99244.34
2019-04-07T19:29:04.301Z,99244.41
2019-04-07T19:31:48.071Z,99247.05
2019-04-07T19:34:31.761Z,99243.61
2019-04-07T19:37:10.262Z,99248.36
2019-04-07T19:39:46.808Z,99249.62
2019-04-07T19:42:25.348Z,99250.09
2019-04-07T19:45:13.364Z,99254.91
2019-04-07T19:47:55.172Z,99252.30
2019-04-07T19:50:35.571Z,99247.92
2019-04-07T19:53:13.221Z,99257.52
2019-04-07T19:55:56.863Z,99260.98
2019-04-07T19:58:35.275Z,99256.67
2019-04-07T20:01:14.785Z,99257.58
2019-04-07T20:03:48.015Z,99261.48
2019-04-07T20:06:28.007Z,99253.70
2019-04-07T20:09:12.686Z,99260.24
2019-04-07T20:11:53.515Z,99256.33
2019-04-07T20:14:26.570Z,99254.22
2019-04-07T20:17:06.965Z,99255.92
2019-04-07T20:19:47.730Z,99257.32
2019-04-07T20:22:29.624Z,99255.92
2019-04-07T20:25:20.558Z,99245.06
2019-04-07T20:28:10.949Z,99249.90
2019-04-07T20:30:59.704Z,99253.37
2019-04-07T20:33:45.720Z,99249.49
2019-04-07T20:36:23.476Z,99254.29
2019-04-07T20:38:58.516Z,99257.39
2019-04-07T20:41:35.915Z,99256.98
2019-04-07T20:44:14.382Z,99250.88
2019-04-07T21:01:33.483Z,99262.26
2019-04-07T21:04:11.909Z,99264.42
2019-04-07T21:06:49.593Z,99265.27
2019-04-07T21:09:25.668Z,99262.73
2019-04-07T21:12:01.209Z,99260.58
2019-04-07T21:14:39.111Z,99258.03
2019-04-07T21:17:13.664Z,99256.30
2019-04-07T21:19:50.794Z,99258.08
2019-04-07T21:22:25.449Z,99253.78
2019-04-07T21:25:13.504Z,99258.12
2019-04-07T21:28:00.323Z,99253.37
2019-04-07T21:30:33.307Z,99255.98
2019-04-07T21:33:15.271Z,99259.88
2019-04-07T21:35:48.338Z,99263.38
2019-04-07T21:38:24.204Z,99259.03
2019-04-07T21:41:13.335Z,99259.04
2019-04-07T21:43:59.714Z,99256.41
2019-04-07T21:46:36.730Z,99257.30
2019-04-07T21:49:14.885Z,99258.14
2019-04-07T21:52:02.617Z,99253.37
2019-04-07T21:54:42.910Z,99259.00
2019-04-07T21:57:21.401Z,99258.59
2019-04-07T21:59:54.341Z,99260.33
2019-04-07T22:02:45.665Z,99257.28
2019-04-07T22:05:23.957Z,99261.61
2019-04-07T22:08:03.756Z,99256.43
2019-04-07T22:10:28.722Z,99262.92
2019-04-07T22:12:59.418Z,99264.66
2019-04-07T22:15:26.724Z,99259.02
2019-04-07T22:17:54.833Z,99268.92
2019-04-07T22:20:22.986Z,99266.30
2019-04-07T22:22:51.295Z,99267.58
2019-04-07T22:25:19.112Z,99271.91
2019-04-07T22:27:46.785Z,99267.97
2019-04-07T22:30:14.733Z,99270.93
2019-04-07T22:32:42.719Z,99277.41
2019-04-07T22:35:10.707Z,99275.63
2019-04-07T22:37:38.517Z,99269.55
2019-04-07T22:40:06.332Z,99269.98
2019-04-07T22:42:35.028Z,99269.51
2019-04-07T22:45:02.863Z,99274.19
2019-04-07T22:47:31.529Z,99274.20
2019-04-07T22:50:02.526Z,99275.84
2019-04-07T22:52:29.944Z,99275.47
2019-04-07T22:54:58.950Z,99271.62
2019-04-07T22:57:27.203Z,99272.91
2019-04-07T22:59:54.857Z,99268.10
2019-04-07T23:02:22.608Z,99269.80
2019-04-07T23:04:50.377Z,99274.09
2019-04-07T23:07:18.240Z,99268.75
2019-04-07T23:09:45.984Z,99274.34
2019-04-07T23:12:13.654Z,99274.70
2019-04-07T23:14:42.164Z,99277.20
2019-04-07T23:17:09.990Z,99275.45
2019-04-07T23:19:37.914Z,99273.62
2019-04-07T23:22:05.692Z,99278.27
2019-04-07T23:24:33.347Z,99278.69
2019-04-07T23:27:01.893Z,99281.78
2019-04-07T23:29:30.438Z,99288.88
2019-04-07T23:31:58.147Z,99284.64
2019-04-07T23:34:25.823Z,99284.97
2019-04-07T23:36:54.075Z,99290.81
2019-04-07T23:39:21.919Z,99290.31
2019-04-07T23:41:49.678Z,99295.96
2019-04-07T23:44:17.331Z,99298.72
2019-04-07T23:46:44.992Z,99305.70
2019-04-07T23:49:13.125Z,99302.23
2019-04-07T23:51:41.430Z,99302.15
2019-04-07T23:54:09.398Z,99297.85
2019-04-07T23:56:37.238Z,99297.88
2019-04-07T23:59:04.901Z,99300.70
